sensor_id;sensor_type;location;lat;lon;timestamp;temperature;humidity
22974;DHT22;11653;50.848;4.584;2023-05-07T00:01:26;16.20;99.90
22974;DHT22;11653;50.848;4.584;2023-05-07T00:03:51;16.20;99.90
22974;DHT22;11653;50.848;4.584;2023-05-07T00:06:17;16.20;99.90
22974;DHT22;11653;50.848;4.584;2023-05-07T00:08:43;16.20;99.90
22974;DHT22;11653;50.848;4.584;2023-05-07T00:11:08;16.20;99.90
22974;DHT22;11653;50.848;4.584;2023-05-07T00:13:34;16.30;99.90
22974;DHT22;11653;50.848;4.584;2023-05-07T00:16:02;16.40;99.90
22974;DHT22;11653;50.848;4.584;2023-05-07T00:18:28;16.30;99.90
22974;DHT22;11653;50.848;4.584;2023-05-07T00:20:54;16.40;99.90
22974;DHT22;11653;50.848;4.584;2023-05-07T00:23:19;16.30;99.90
22974;DHT22;11653;50.848;4.584;2023-05-07T00:25:45;16.20;99.90
22974;DHT22;11653;50.848;4.584;2023-05-07T00:28:10;16.20;99.90
22974;DHT22;11653;50.848;4.584;2023-05-07T00:30:36;16.30;99.90
22974;DHT22;11653;50.848;4.584;2023-05-07T00:33:02;16.30;99.90
22974;DHT22;11653;50.848;4.584;2023-05-07T00:35:29;16.30;99.90
22974;DHT22;11653;50.848;4.584;2023-05-07T00:37:55;16.40;99.90
22974;DHT22;11653;50.848;4.584;2023-05-07T00:40:21;16.30;99.90
22974;DHT22;11653;50.848;4.584;2023-05-07T00:42:46;16.40;99.90
22974;DHT22;11653;50.848;4.584;2023-05-07T00:45:14;16.40;99.90
22974;DHT22;11653;50.848;4.584;2023-05-07T00:47:41;16.30;99.90
22974;DHT22;11653;50.848;4.584;2023-05-07T00:50:08;16.40;99.90
22974;DHT22;11653;50.848;4.584;2023-05-07T00:52:36;16.50;99.90
22974;DHT22;11653;50.848;4.584;2023-05-07T00:55:05;16.50;99.90
22974;DHT22;11653;50.848;4.584;2023-05-07T00:57:35;16.50;99.90
22974;DHT22;11653;50.848;4.584;2023-05-07T01:00:03;16.50;99.90
22974;DHT22;11653;50.848;4.584;2023-05-07T01:02:29;16.40;99.90
22974;DHT22;11653;50.848;4.584;2023-05-07T01:04:55;16.40;99.90
22974;DHT22;11653;50.848;4.584;2023-05-07T01:07:22;16.50;99.90
22974;DHT22;11653;50.848;4.584;2023-05-07T01:09:48;16.60;99.90
22974;DHT22;11653;50.848;4.584;2023-05-07T01:12:14;16.60;99.90
22974;DHT22;11653;50.848;4.584;2023-05-07T01:14:41;16.50;99.90
22974;DHT22;11653;50.848;4.584;2023-05-07T01:17:07;16.50;99.90
22974;DHT22;11653;50.848;4.584;2023-05-07T01:19:33;16.60;99.90
22974;DHT22;11653;50.848;4.584;2023-05-07T01:22:09;16.60;99.90
22974;DHT22;11653;50.848;4.584;2023-05-07T01:24:37;16.50;99.90
22974;DHT22;11653;50.848;4.584;2023-05-07T01:27:03;16.60;99.90
22974;DHT22;11653;50.848;4.584;2023-05-07T01:29:29;16.50;99.90
22974;DHT22;11653;50.848;4.584;2023-05-07T01:31:58;16.50;99.90
22974;DHT22;11653;50.848;4.584;2023-05-07T01:34:25;16.50;99.90
22974;DHT22;11653;50.848;4.584;2023-05-07T01:36:53;16.40;99.90
22974;DHT22;11653;50.848;4.584;2023-05-07T01:39:24;16.40;99.90
22974;DHT22;11653;50.848;4.584;2023-05-07T01:41:50;16.40;99.90
22974;DHT22;11653;50.848;4.584;2023-05-07T01:44:16;16.50;99.90
22974;DHT22;11653;50.848;4.584;2023-05-07T01:46:43;16.50;99.90
22974;DHT22;11653;50.848;4.584;2023-05-07T01:49:09;16.40;99.90
22974;DHT22;11653;50.848;4.584;2023-05-07T01:51:35;16.50;99.90
22974;DHT22;11653;50.848;4.584;2023-05-07T01:54:01;16.40;99.90
22974;DHT22;11653;50.848;4.584;2023-05-07T01:56:27;16.40;99.90
22974;DHT22;11653;50.848;4.584;2023-05-07T01:58:52;16.30;99.90
22974;DHT22;11653;50.848;4.584;2023-05-07T02:01:18;16.30;99.90
22974;DHT22;11653;50.848;4.584;2023-05-07T02:03:44;16.30;99.90
22974;DHT22;11653;50.848;4.584;2023-05-07T02:06:10;16.40;99.90
22974;DHT22;11653;50.848;4.584;2023-05-07T02:08:35;16.40;99.90
22974;DHT22;11653;50.848;4.584;2023-05-07T02:11:01;16.40;99.90
22974;DHT22;11653;50.848;4.584;2023-05-07T02:13:30;16.40;99.90
22974;DHT22;11653;50.848;4.584;2023-05-07T02:15:56;16.50;99.90
22974;DHT22;11653;50.848;4.584;2023-05-07T02:18:21;16.50;99.90
22974;DHT22;11653;50.848;4.584;2023-05-07T02:20:47;16.50;99.90
22974;DHT22;11653;50.848;4.584;2023-05-07T02:23:12;16.50;99.90
22974;DHT22;11653;50.848;4.584;2023-05-07T02:25:38;16.60;99.90
22974;DHT22;11653;50.848;4.584;2023-05-07T02:28:04;16.50;99.90
22974;DHT22;11653;50.848;4.584;2023-05-07T02:30:29;16.50;99.90
22974;DHT22;11653;50.848;4.584;2023-05-07T02:32:55;16.40;99.90
22974;DHT22;11653;50.848;4.584;2023-05-07T02:35:21;16.50;99.90
22974;DHT22;11653;50.848;4.584;2023-05-07T02:37:46;16.50;99.90
22974;DHT22;11653;50.848;4.584;2023-05-07T02:40:12;16.60;99.90
22974;DHT22;11653;50.848;4.584;2023-05-07T02:42:38;16.50;99.90
22974;DHT22;11653;50.848;4.584;2023-05-07T02:45:04;16.50;99.90
22974;DHT22;11653;50.848;4.584;2023-05-07T02:47:30;16.40;99.90
22974;DHT22;11653;50.848;4.584;2023-05-07T02:49:55;16.40;99.90
22974;DHT22;11653;50.848;4.584;2023-05-07T02:52:21;16.40;99.90
22974;DHT22;11653;50.848;4.584;2023-05-07T02:54:47;16.40;99.90
22974;DHT22;11653;50.848;4.584;2023-05-07T02:57:13;16.30;99.90
22974;DHT22;11653;50.848;4.584;2023-05-07T02:59:38;16.20;99.90
22974;DHT22;11653;50.848;4.584;2023-05-07T03:02:04;16.10;99.90
22974;DHT22;11653;50.848;4.584;2023-05-07T03:04:30;16.10;99.90
22974;DHT22;11653;50.848;4.584;2023-05-07T03:06:56;16.10;99.90
22974;DHT22;11653;50.848;4.584;2023-05-07T03:09:22;16.00;99.90
22974;DHT22;11653;50.848;4.584;2023-05-07T03:11:47;16.00;99.90
22974;DHT22;11653;50.848;4.584;2023-05-07T03:14:13;16.00;99.90
22974;DHT22;11653;50.848;4.584;2023-05-07T03:16:39;15.90;99.90
22974;DHT22;11653;50.848;4.584;2023-05-07T03:19:04;15.90;99.90
22974;DHT22;11653;50.848;4.584;2023-05-07T03:21:30;15.80;99.90
22974;DHT22;11653;50.848;4.584;2023-05-07T03:23:59;15.80;99.90
22974;DHT22;11653;50.848;4.584;2023-05-07T03:26:25;15.80;99.90
22974;DHT22;11653;50.848;4.584;2023-05-07T03:28:51;15.80;99.90
22974;DHT22;11653;50.848;4.584;2023-05-07T03:31:17;16.00;99.90
22974;DHT22;11653;50.848;4.584;2023-05-07T03:33:53;16.00;99.90
22974;DHT22;11653;50.848;4.584;2023-05-07T03:36:20;16.00;99.90
22974;DHT22;11653;50.848;4.584;2023-05-07T03:38:46;16.00;99.90
22974;DHT22;11653;50.848;4.584;2023-05-07T03:41:12;16.00;99.90
22974;DHT22;11653;50.848;4.584;2023-05-07T03:43:37;16.10;99.90
22974;DHT22;11653;50.848;4.584;2023-05-07T03:46:03;16.20;99.90
22974;DHT22;11653;50.848;4.584;2023-05-07T03:48:29;16.30;99.90
22974;DHT22;11653;50.848;4.584;2023-05-07T03:50:57;16.30;99.90
22974;DHT22;11653;50.848;4.584;2023-05-07T03:53:23;16.30;99.90
22974;DHT22;11653;50.848;4.584;2023-05-07T03:55:48;16.30;99.90
22974;DHT22;11653;50.848;4.584;2023-05-07T03:58:14;16.20;99.90
22974;DHT22;11653;50.848;4.584;2023-05-07T04:00:40;16.20;99.90
22974;DHT22;11653;50.848;4.584;2023-05-07T04:03:06;16.10;99.90
22974;DHT22;11653;50.848;4.584;2023-05-07T04:05:32;16.10;99.90
22974;DHT22;11653;50.848;4.584;2023-05-07T04:07:58;16.10;99.90
22974;DHT22;11653;50.848;4.584;2023-05-07T04:10:24;16.10;99.90
22974;DHT22;11653;50.848;4.584;2023-05-07T04:12:50;16.10;99.90
22974;DHT22;11653;50.848;4.584;2023-05-07T04:15:16;16.20;99.90
22974;DHT22;11653;50.848;4.584;2023-05-07T04:17:41;16.20;99.90
22974;DHT22;11653;50.848;4.584;2023-05-07T04:20:09;16.20;99.90
22974;DHT22;11653;50.848;4.584;2023-05-07T04:22:36;16.20;99.90
22974;DHT22;11653;50.848;4.584;2023-05-07T04:25:02;16.20;99.90
22974;DHT22;11653;50.848;4.584;2023-05-07T04:27:28;16.20;99.90
22974;DHT22;11653;50.848;4.584;2023-05-07T04:29:54;16.20;99.90
22974;DHT22;11653;50.848;4.584;2023-05-07T04:32:21;16.20;99.90
22974;DHT22;11653;50.848;4.584;2023-05-07T04:34:47;16.20;99.90
22974;DHT22;11653;50.848;4.584;2023-05-07T04:37:13;16.20;99.90
22974;DHT22;11653;50.848;4.584;2023-05-07T04:39:38;16.20;99.90
22974;DHT22;11653;50.848;4.584;2023-05-07T04:42:04;16.40;99.90
22974;DHT22;11653;50.848;4.584;2023-05-07T04:44:30;16.30;99.90
22974;DHT22;11653;50.848;4.584;2023-05-07T04:46:56;16.50;99.90
22974;DHT22;11653;50.848;4.584;2023-05-07T04:49:23;16.50;99.90
22974;DHT22;11653;50.848;4.584;2023-05-07T04:51:49;16.40;99.90
22974;DHT22;11653;50.848;4.584;2023-05-07T04:54:15;16.50;99.90
22974;DHT22;11653;50.848;4.584;2023-05-07T04:56:41;16.60;99.90
22974;DHT22;11653;50.848;4.584;2023-05-07T04:59:06;16.60;99.90
22974;DHT22;11653;50.848;4.584;2023-05-07T05:01:32;16.60;99.90
22974;DHT22;11653;50.848;4.584;2023-05-07T05:03:58;16.50;99.90
22974;DHT22;11653;50.848;4.584;2023-05-07T05:06:25;16.50;99.90
22974;DHT22;11653;50.848;4.584;2023-05-07T05:08:51;16.60;99.90
22974;DHT22;11653;50.848;4.584;2023-05-07T05:11:17;16.70;99.90
22974;DHT22;11653;50.848;4.584;2023-05-07T05:13:43;16.70;99.90
22974;DHT22;11653;50.848;4.584;2023-05-07T05:16:08;16.80;99.90
22974;DHT22;11653;50.848;4.584;2023-05-07T05:18:34;16.90;99.90
22974;DHT22;11653;50.848;4.584;2023-05-07T05:21:03;16.90;99.90
22974;DHT22;11653;50.848;4.584;2023-05-07T05:23:29;17.00;99.90
22974;DHT22;11653;50.848;4.584;2023-05-07T05:25:58;17.10;99.90
22974;DHT22;11653;50.848;4.584;2023-05-07T05:28:24;17.20;99.90
22974;DHT22;11653;50.848;4.584;2023-05-07T05:30:50;17.30;99.90
22974;DHT22;11653;50.848;4.584;2023-05-07T05:33:16;17.50;99.90
22974;DHT22;11653;50.848;4.584;2023-05-07T05:35:42;17.50;99.90
22974;DHT22;11653;50.848;4.584;2023-05-07T05:38:08;17.40;99.90
22974;DHT22;11653;50.848;4.584;2023-05-07T05:40:33;17.40;99.90
22974;DHT22;11653;50.848;4.584;2023-05-07T05:42:59;17.40;99.90
22974;DHT22;11653;50.848;4.584;2023-05-07T05:45:25;17.50;99.90
22974;DHT22;11653;50.848;4.584;2023-05-07T05:47:51;17.50;99.90
22974;DHT22;11653;50.848;4.584;2023-05-07T05:50:17;17.60;99.90
22974;DHT22;11653;50.848;4.584;2023-05-07T05:52:42;17.60;99.90
22974;DHT22;11653;50.848;4.584;2023-05-07T05:55:09;17.70;99.90
22974;DHT22;11653;50.848;4.584;2023-05-07T05:57:35;17.70;99.90
22974;DHT22;11653;50.848;4.584;2023-05-07T06:00:01;17.70;99.90
22974;DHT22;11653;50.848;4.584;2023-05-07T06:02:28;17.60;99.90
22974;DHT22;11653;50.848;4.584;2023-05-07T06:04:54;17.60;99.90
22974;DHT22;11653;50.848;4.584;2023-05-07T06:07:19;17.60;99.90
22974;DHT22;11653;50.848;4.584;2023-05-07T06:09:45;17.60;99.90
22974;DHT22;11653;50.848;4.584;2023-05-07T06:14:47;17.80;99.90
22974;DHT22;11653;50.848;4.584;2023-05-07T06:17:13;17.80;99.90
22974;DHT22;11653;50.848;4.584;2023-05-07T06:19:39;17.90;99.90
22974;DHT22;11653;50.848;4.584;2023-05-07T06:22:05;18.00;99.90
22974;DHT22;11653;50.848;4.584;2023-05-07T06:24:38;17.90;99.90
22974;DHT22;11653;50.848;4.584;2023-05-07T06:27:04;17.80;99.90
22974;DHT22;11653;50.848;4.584;2023-05-07T06:29:32;17.70;99.90
22974;DHT22;11653;50.848;4.584;2023-05-07T06:32:09;17.50;99.90
22974;DHT22;11653;50.848;4.584;2023-05-07T06:34:35;17.40;99.90
22974;DHT22;11653;50.848;4.584;2023-05-07T06:37:01;17.30;99.90
22974;DHT22;11653;50.848;4.584;2023-05-07T06:39:27;17.30;99.90
22974;DHT22;11653;50.848;4.584;2023-05-07T06:41:52;17.30;99.90
22974;DHT22;11653;50.848;4.584;2023-05-07T06:44:18;17.40;99.90
22974;DHT22;11653;50.848;4.584;2023-05-07T06:46:47;17.50;99.90
22974;DHT22;11653;50.848;4.584;2023-05-07T06:49:28;17.60;99.90
22974;DHT22;11653;50.848;4.584;2023-05-07T06:51:53;17.70;99.90
22974;DHT22;11653;50.848;4.584;2023-05-07T06:54:19;17.80;99.90
22974;DHT22;11653;50.848;4.584;2023-05-07T06:56:45;17.90;99.90
22974;DHT22;11653;50.848;4.584;2023-05-07T06:59:11;18.00;99.90
22974;DHT22;11653;50.848;4.584;2023-05-07T07:01:44;18.00;99.90
22974;DHT22;11653;50.848;4.584;2023-05-07T07:04:10;18.00;99.90
22974;DHT22;11653;50.848;4.584;2023-05-07T07:06:36;18.10;99.90
22974;DHT22;11653;50.848;4.584;2023-05-07T07:09:01;18.30;99.90
22974;DHT22;11653;50.848;4.584;2023-05-07T07:11:27;18.40;99.90
22974;DHT22;11653;50.848;4.584;2023-05-07T07:13:53;18.50;99.90
22974;DHT22;11653;50.848;4.584;2023-05-07T07:16:20;18.40;99.90
22974;DHT22;11653;50.848;4.584;2023-05-07T07:18:46;18.40;99.90
22974;DHT22;11653;50.848;4.584;2023-05-07T07:21:12;18.40;99.90
22974;DHT22;11653;50.848;4.584;2023-05-07T07:23:38;18.30;99.90
22974;DHT22;11653;50.848;4.584;2023-05-07T07:26:04;18.20;99.90
22974;DHT22;11653;50.848;4.584;2023-05-07T07:28:31;18.10;99.90
22974;DHT22;11653;50.848;4.584;2023-05-07T07:30:58;18.10;99.90
22974;DHT22;11653;50.848;4.584;2023-05-07T07:33:59;18.20;99.90
22974;DHT22;11653;50.848;4.584;2023-05-07T07:36:32;18.20;99.90
22974;DHT22;11653;50.848;4.584;2023-05-07T07:38:58;18.30;99.90
22974;DHT22;11653;50.848;4.584;2023-05-07T07:41:27;18.40;99.90
22974;DHT22;11653;50.848;4.584;2023-05-07T07:43:53;18.30;99.90
22974;DHT22;11653;50.848;4.584;2023-05-07T07:46:22;18.40;99.90
22974;DHT22;11653;50.848;4.584;2023-05-07T07:49:02;18.50;99.90
22974;DHT22;11653;50.848;4.584;2023-05-07T07:51:29;18.60;99.90
22974;DHT22;11653;50.848;4.584;2023-05-07T07:53:55;18.60;99.90
22974;DHT22;11653;50.848;4.584;2023-05-07T07:56:23;18.60;99.90
22974;DHT22;11653;50.848;4.584;2023-05-07T07:58:54;18.60;99.90
22974;DHT22;11653;50.848;4.584;2023-05-07T08:01:31;18.70;99.90
22974;DHT22;11653;50.848;4.584;2023-05-07T08:03:56;18.70;99.90
22974;DHT22;11653;50.848;4.584;2023-05-07T08:06:28;18.60;99.90
22974;DHT22;11653;50.848;4.584;2023-05-07T08:08:54;18.70;99.90
22974;DHT22;11653;50.848;4.584;2023-05-07T08:11:20;18.50;99.90
22974;DHT22;11653;50.848;4.584;2023-05-07T08:13:46;18.40;99.90
22974;DHT22;11653;50.848;4.584;2023-05-07T08:16:12;18.40;99.90
22974;DHT22;11653;50.848;4.584;2023-05-07T08:18:38;18.50;99.90
22974;DHT22;11653;50.848;4.584;2023-05-07T08:21:04;18.50;99.90
22974;DHT22;11653;50.848;4.584;2023-05-07T08:23:30;18.40;99.90
22974;DHT22;11653;50.848;4.584;2023-05-07T08:25:56;18.40;99.90
22974;DHT22;11653;50.848;4.584;2023-05-07T08:28:21;18.50;99.90
22974;DHT22;11653;50.848;4.584;2023-05-07T08:30:47;18.60;99.90
22974;DHT22;11653;50.848;4.584;2023-05-07T08:33:13;18.70;99.90
22974;DHT22;11653;50.848;4.584;2023-05-07T08:35:39;18.80;99.90
22974;DHT22;11653;50.848;4.584;2023-05-07T08:38:04;18.90;99.90
22974;DHT22;11653;50.848;4.584;2023-05-07T08:40:42;18.80;99.90
22974;DHT22;11653;50.848;4.584;2023-05-07T08:43:08;18.90;99.90
22974;DHT22;11653;50.848;4.584;2023-05-07T08:45:34;18.70;99.90
22974;DHT22;11653;50.848;4.584;2023-05-07T08:48:09;18.70;99.90
22974;DHT22;11653;50.848;4.584;2023-05-07T08:50:39;18.70;99.90
22974;DHT22;11653;50.848;4.584;2023-05-07T08:53:05;18.80;99.90
22974;DHT22;11653;50.848;4.584;2023-05-07T08:55:31;18.90;99.90
22974;DHT22;11653;50.848;4.584;2023-05-07T08:57:58;19.00;99.90
22974;DHT22;11653;50.848;4.584;2023-05-07T09:00:24;18.90;99.90
22974;DHT22;11653;50.848;4.584;2023-05-07T09:02:50;18.80;99.90
22974;DHT22;11653;50.848;4.584;2023-05-07T09:05:16;18.90;99.90
22974;DHT22;11653;50.848;4.584;2023-05-07T09:07:41;18.90;99.90
22974;DHT22;11653;50.848;4.584;2023-05-07T09:10:07;19.00;99.90
22974;DHT22;11653;50.848;4.584;2023-05-07T09:12:33;19.20;99.90
22974;DHT22;11653;50.848;4.584;2023-05-07T09:15:00;19.30;99.90
22974;DHT22;11653;50.848;4.584;2023-05-07T09:17:28;19.40;99.90
22974;DHT22;11653;50.848;4.584;2023-05-07T09:19:53;19.50;99.90
22974;DHT22;11653;50.848;4.584;2023-05-07T09:22:20;19.50;99.90
22974;DHT22;11653;50.848;4.584;2023-05-07T09:24:49;19.70;99.90
22974;DHT22;11653;50.848;4.584;2023-05-07T09:27:15;19.80;99.90
22974;DHT22;11653;50.848;4.584;2023-05-07T09:29:41;19.80;99.90
22974;DHT22;11653;50.848;4.584;2023-05-07T09:32:07;19.80;99.90
22974;DHT22;11653;50.848;4.584;2023-05-07T09:34:34;19.90;99.90
22974;DHT22;11653;50.848;4.584;2023-05-07T09:37:04;19.90;99.90
22974;DHT22;11653;50.848;4.584;2023-05-07T09:39:44;19.80;99.90
22974;DHT22;11653;50.848;4.584;2023-05-07T09:42:11;19.80;99.90
22974;DHT22;11653;50.848;4.584;2023-05-07T09:44:38;19.80;99.90
22974;DHT22;11653;50.848;4.584;2023-05-07T09:47:07;19.80;99.90
22974;DHT22;11653;50.848;4.584;2023-05-07T09:49:35;19.70;99.90
22974;DHT22;11653;50.848;4.584;2023-05-07T09:52:03;19.70;99.90
22974;DHT22;11653;50.848;4.584;2023-05-07T09:54:31;19.60;99.90
22974;DHT22;11653;50.848;4.584;2023-05-07T09:56:59;19.70;99.90
22974;DHT22;11653;50.848;4.584;2023-05-07T09:59:28;19.80;99.90
22974;DHT22;11653;50.848;4.584;2023-05-07T10:01:57;19.80;99.90
22974;DHT22;11653;50.848;4.584;2023-05-07T10:04:25;19.80;99.90
22974;DHT22;11653;50.848;4.584;2023-05-07T10:06:52;19.70;99.90
22974;DHT22;11653;50.848;4.584;2023-05-07T10:09:21;19.70;99.90
22974;DHT22;11653;50.848;4.584;2023-05-07T10:11:49;19.50;99.90
22974;DHT22;11653;50.848;4.584;2023-05-07T10:14:15;19.60;99.90
22974;DHT22;11653;50.848;4.584;2023-05-07T10:16:41;19.50;99.90
22974;DHT22;11653;50.848;4.584;2023-05-07T10:19:13;19.40;99.90
22974;DHT22;11653;50.848;4.584;2023-05-07T10:21:54;19.40;99.90
22974;DHT22;11653;50.848;4.584;2023-05-07T10:24:29;19.50;99.90
22974;DHT22;11653;50.848;4.584;2023-05-07T10:27:02;19.60;99.90
22974;DHT22;11653;50.848;4.584;2023-05-07T10:34:55;19.70;99.90
22974;DHT22;11653;50.848;4.584;2023-05-07T10:37:25;19.70;99.90
22974;DHT22;11653;50.848;4.584;2023-05-07T10:39:52;19.90;99.90
22974;DHT22;11653;50.848;4.584;2023-05-07T10:42:18;19.90;99.90
22974;DHT22;11653;50.848;4.584;2023-05-07T10:44:47;20.10;99.90
22974;DHT22;11653;50.848;4.584;2023-05-07T10:47:15;20.10;99.90
22974;DHT22;11653;50.848;4.584;2023-05-07T10:52:23;20.50;99.90
22974;DHT22;11653;50.848;4.584;2023-05-07T11:01:03;20.40;99.90
22974;DHT22;11653;50.848;4.584;2023-05-07T11:04:14;20.40;99.90
22974;DHT22;11653;50.848;4.584;2023-05-07T11:09:55;20.40;99.90
22974;DHT22;11653;50.848;4.584;2023-05-07T11:15:05;20.60;99.90
22974;DHT22;11653;50.848;4.584;2023-05-07T11:17:31;20.60;99.90
22974;DHT22;11653;50.848;4.584;2023-05-07T11:20:00;20.70;99.90
22974;DHT22;11653;50.848;4.584;2023-05-07T11:25:02;20.90;99.90
22974;DHT22;11653;50.848;4.584;2023-05-07T11:27:29;21.00;99.90
22974;DHT22;11653;50.848;4.584;2023-05-07T11:29:55;21.10;99.90
22974;DHT22;11653;50.848;4.584;2023-05-07T11:32:25;21.10;99.90
22974;DHT22;11653;50.848;4.584;2023-05-07T11:34:57;21.30;99.90
22974;DHT22;11653;50.848;4.584;2023-05-07T11:37:24;21.50;99.90
22974;DHT22;11653;50.848;4.584;2023-05-07T11:39:50;21.70;99.90
22974;DHT22;11653;50.848;4.584;2023-05-07T11:42:35;21.90;99.90
22974;DHT22;11653;50.848;4.584;2023-05-07T11:45:07;22.00;99.90
22974;DHT22;11653;50.848;4.584;2023-05-07T11:47:35;22.10;99.90
22974;DHT22;11653;50.848;4.584;2023-05-07T11:50:05;22.30;99.90
22974;DHT22;11653;50.848;4.584;2023-05-07T11:52:36;22.30;99.90
22974;DHT22;11653;50.848;4.584;2023-05-07T11:55:02;22.40;99.90
22974;DHT22;11653;50.848;4.584;2023-05-07T11:57:32;22.40;99.90
22974;DHT22;11653;50.848;4.584;2023-05-07T12:00:01;22.60;99.90
22974;DHT22;11653;50.848;4.584;2023-05-07T12:02:29;22.60;99.90
22974;DHT22;11653;50.848;4.584;2023-05-07T12:05:02;22.80;99.90
22974;DHT22;11653;50.848;4.584;2023-05-07T12:07:28;22.80;99.90
22974;DHT22;11653;50.848;4.584;2023-05-07T12:10:06;22.80;99.90
22974;DHT22;11653;50.848;4.584;2023-05-07T12:12:41;22.90;99.90
22974;DHT22;11653;50.848;4.584;2023-05-07T12:15:09;22.90;99.90
22974;DHT22;11653;50.848;4.584;2023-05-07T12:17:43;22.70;99.90
22974;DHT22;11653;50.848;4.584;2023-05-07T12:20:10;22.70;99.90
22974;DHT22;11653;50.848;4.584;2023-05-07T12:22:36;22.60;99.90
22974;DHT22;11653;50.848;4.584;2023-05-07T12:25:05;22.70;99.90
22974;DHT22;11653;50.848;4.584;2023-05-07T12:27:32;22.60;99.90
22974;DHT22;11653;50.848;4.584;2023-05-07T12:29:58;22.60;99.90
22974;DHT22;11653;50.848;4.584;2023-05-07T12:32:27;22.40;99.90
22974;DHT22;11653;50.848;4.584;2023-05-07T12:34:54;22.30;99.90
22974;DHT22;11653;50.848;4.584;2023-05-07T12:37:26;22.10;99.90
22974;DHT22;11653;50.848;4.584;2023-05-07T12:40:09;22.00;99.90
22974;DHT22;11653;50.848;4.584;2023-05-07T12:42:36;22.00;99.90
22974;DHT22;11653;50.848;4.584;2023-05-07T12:48:25;21.90;99.90
22974;DHT22;11653;50.848;4.584;2023-05-07T12:50:56;21.90;99.90
22974;DHT22;11653;50.848;4.584;2023-05-07T12:53:24;21.90;99.90
22974;DHT22;11653;50.848;4.584;2023-05-07T12:55:53;22.00;99.90
22974;DHT22;11653;50.848;4.584;2023-05-07T12:58:37;22.20;99.90
22974;DHT22;11653;50.848;4.584;2023-05-07T13:01:07;22.30;99.90
22974;DHT22;11653;50.848;4.584;2023-05-07T13:03:36;22.30;99.90
22974;DHT22;11653;50.848;4.584;2023-05-07T13:06:07;22.40;99.90
22974;DHT22;11653;50.848;4.584;2023-05-07T13:08:36;22.40;99.90
22974;DHT22;11653;50.848;4.584;2023-05-07T13:11:04;22.30;99.90
22974;DHT22;11653;50.848;4.584;2023-05-07T13:13:31;22.30;99.90
22974;DHT22;11653;50.848;4.584;2023-05-07T13:15:57;22.10;99.90
22974;DHT22;11653;50.848;4.584;2023-05-07T13:18:24;22.20;99.90
22974;DHT22;11653;50.848;4.584;2023-05-07T13:20:50;22.20;99.90
22974;DHT22;11653;50.848;4.584;2023-05-07T13:23:16;22.30;99.90
22974;DHT22;11653;50.848;4.584;2023-05-07T13:25:42;22.30;99.90
22974;DHT22;11653;50.848;4.584;2023-05-07T13:28:08;22.40;99.90
22974;DHT22;11653;50.848;4.584;2023-05-07T13:30:34;22.40;99.90
22974;DHT22;11653;50.848;4.584;2023-05-07T13:33:00;22.30;99.90
22974;DHT22;11653;50.848;4.584;2023-05-07T13:35:27;22.30;99.90
22974;DHT22;11653;50.848;4.584;2023-05-07T13:37:53;22.30;99.90
22974;DHT22;11653;50.848;4.584;2023-05-07T13:40:20;22.40;99.90
22974;DHT22;11653;50.848;4.584;2023-05-07T13:42:47;22.30;99.90
22974;DHT22;11653;50.848;4.584;2023-05-07T13:45:13;22.20;99.90
22974;DHT22;11653;50.848;4.584;2023-05-07T13:47:42;22.10;99.90
22974;DHT22;11653;50.848;4.584;2023-05-07T13:50:09;22.00;99.90
22974;DHT22;11653;50.848;4.584;2023-05-07T13:52:35;22.00;99.90
22974;DHT22;11653;50.848;4.584;2023-05-07T13:55:01;22.00;99.90
22974;DHT22;11653;50.848;4.584;2023-05-07T13:57:26;21.80;99.90
22974;DHT22;11653;50.848;4.584;2023-05-07T13:59:52;21.80;99.90
22974;DHT22;11653;50.848;4.584;2023-05-07T14:02:18;21.90;99.90
22974;DHT22;11653;50.848;4.584;2023-05-07T14:04:44;21.90;99.90
22974;DHT22;11653;50.848;4.584;2023-05-07T14:07:10;21.70;99.90
22974;DHT22;11653;50.848;4.584;2023-05-07T14:09:36;21.60;99.90
22974;DHT22;11653;50.848;4.584;2023-05-07T14:12:02;21.60;99.90
22974;DHT22;11653;50.848;4.584;2023-05-07T14:14:27;21.60;99.90
22974;DHT22;11653;50.848;4.584;2023-05-07T14:16:53;21.60;99.90
22974;DHT22;11653;50.848;4.584;2023-05-07T14:19:19;21.60;99.90
22974;DHT22;11653;50.848;4.584;2023-05-07T14:21:45;21.70;99.90
22974;DHT22;11653;50.848;4.584;2023-05-07T14:24:10;21.70;99.90
22974;DHT22;11653;50.848;4.584;2023-05-07T14:26:39;21.50;99.90
22974;DHT22;11653;50.848;4.584;2023-05-07T14:29:05;21.40;99.90
22974;DHT22;11653;50.848;4.584;2023-05-07T14:31:30;21.40;99.90
22974;DHT22;11653;50.848;4.584;2023-05-07T14:33:56;21.30;99.90
22974;DHT22;11653;50.848;4.584;2023-05-07T14:36:25;21.20;99.90
22974;DHT22;11653;50.848;4.584;2023-05-07T14:38:55;21.20;99.90
22974;DHT22;11653;50.848;4.584;2023-05-07T14:41:24;21.10;99.90
22974;DHT22;11653;50.848;4.584;2023-05-07T14:43:52;21.30;99.90
22974;DHT22;11653;50.848;4.584;2023-05-07T14:46:18;21.30;99.90
22974;DHT22;11653;50.848;4.584;2023-05-07T14:48:47;21.30;99.90
22974;DHT22;11653;50.848;4.584;2023-05-07T14:51:15;21.30;99.90
22974;DHT22;11653;50.848;4.584;2023-05-07T14:53:41;21.40;99.90
22974;DHT22;11653;50.848;4.584;2023-05-07T14:56:07;21.40;99.90
22974;DHT22;11653;50.848;4.584;2023-05-07T14:58:34;21.40;99.90
22974;DHT22;11653;50.848;4.584;2023-05-07T15:01:00;21.60;99.90
22974;DHT22;11653;50.848;4.584;2023-05-07T15:03:28;21.80;99.90
22974;DHT22;11653;50.848;4.584;2023-05-07T15:05:55;21.80;99.90
22974;DHT22;11653;50.848;4.584;2023-05-07T15:08:21;21.80;99.90
22974;DHT22;11653;50.848;4.584;2023-05-07T15:10:47;21.70;99.90
22974;DHT22;11653;50.848;4.584;2023-05-07T15:13:13;21.70;99.90
22974;DHT22;11653;50.848;4.584;2023-05-07T15:15:39;21.80;99.90
22974;DHT22;11653;50.848;4.584;2023-05-07T15:18:05;21.80;99.90
22974;DHT22;11653;50.848;4.584;2023-05-07T15:20:31;21.80;99.90
22974;DHT22;11653;50.848;4.584;2023-05-07T15:22:57;21.80;99.90
22974;DHT22;11653;50.848;4.584;2023-05-07T15:25:23;21.80;99.90
22974;DHT22;11653;50.848;4.584;2023-05-07T15:27:49;21.90;99.90
22974;DHT22;11653;50.848;4.584;2023-05-07T15:30:15;21.90;99.90
22974;DHT22;11653;50.848;4.584;2023-05-07T15:32:43;21.90;99.90
22974;DHT22;11653;50.848;4.584;2023-05-07T15:35:09;21.90;99.90
22974;DHT22;11653;50.848;4.584;2023-05-07T15:37:35;21.90;99.90
22974;DHT22;11653;50.848;4.584;2023-05-07T15:40:02;21.90;99.90
22974;DHT22;11653;50.848;4.584;2023-05-07T15:42:30;22.00;99.90
22974;DHT22;11653;50.848;4.584;2023-05-07T15:44:56;22.00;99.90
22974;DHT22;11653;50.848;4.584;2023-05-07T15:47:28;22.10;99.90
22974;DHT22;11653;50.848;4.584;2023-05-07T15:49:54;22.00;99.90
22974;DHT22;11653;50.848;4.584;2023-05-07T15:52:20;22.00;99.90
22974;DHT22;11653;50.848;4.584;2023-05-07T15:54:46;22.00;99.90
22974;DHT22;11653;50.848;4.584;2023-05-07T15:57:12;22.00;99.90
22974;DHT22;11653;50.848;4.584;2023-05-07T15:59:38;22.00;99.90